createdAt,value
2018-12-27T00:02:15.936Z,89.28
2018-12-27T00:04:48.672Z,89.60
2018-12-27T00:07:21.144Z,89.90
2018-12-27T00:09:50.628Z,89.82
2018-12-27T00:12:20.076Z,90.05
2018-12-27T00:14:50.414Z,90.14
2018-12-27T00:17:19.922Z,90.21
2018-12-27T00:19:49.348Z,90.42
2018-12-27T00:22:30.460Z,90.26
2018-12-27T00:25:00.157Z,90.09
2018-12-27T00:27:29.552Z,90.19
2018-12-27T00:30:01.644Z,90.34
2018-12-27T00:32:31.298Z,90.19
2018-12-27T00:35:01.081Z,90.10
2018-12-27T00:40:06.084Z,90.02
2018-12-27T00:42:47.414Z,90.11
2018-12-27T00:45:16.986Z,90.10
2018-12-27T00:47:46.625Z,90.15
2018-12-27T00:50:16.201Z,90.25
2018-12-27T00:52:45.828Z,90.38
2018-12-27T00:55:15.376Z,90.46
2018-12-27T00:57:44.998Z,90.53
2018-12-27T01:00:14.657Z,90.43
2018-12-27T01:02:44.447Z,90.51
2018-12-27T01:05:14.235Z,90.50
2018-12-27T01:07:44.483Z,90.54
2018-12-27T01:10:16.362Z,90.63
2018-12-27T01:12:45.945Z,90.97
2018-12-27T01:15:15.698Z,91.21
2018-12-27T01:17:45.386Z,91.11
2018-12-27T01:20:22.391Z,91.45
2018-12-27T01:23:03.606Z,91.61
2018-12-27T01:25:33.200Z,91.67
2018-12-27T01:28:02.823Z,91.72
2018-12-27T01:30:32.450Z,91.46
2018-12-27T01:33:02.031Z,91.56
2018-12-27T01:35:31.562Z,91.33
2018-12-27T01:38:01.210Z,91.34
2018-12-27T01:43:06.395Z,91.28
2018-12-27T01:48:17.764Z,91.17
2018-12-27T01:50:47.730Z,91.25
2018-12-27T01:53:17.414Z,91.16
2018-12-27T01:55:46.962Z,91.13
2018-12-27T01:58:16.534Z,91.01
2018-12-27T02:00:46.067Z,91.07
2018-12-27T02:03:15.819Z,91.11
2018-12-27T02:05:45.376Z,91.00
2018-12-27T02:08:14.965Z,91.03
2018-12-27T02:10:45.135Z,90.94
2018-12-27T02:13:14.681Z,90.84
2018-12-27T02:15:44.577Z,91.04
2018-12-27T02:18:14.368Z,90.89
2018-12-27T02:20:46.344Z,90.92
2018-12-27T02:23:15.902Z,90.98
2018-12-27T02:25:46.464Z,90.64
2018-12-27T02:31:04.907Z,90.38
2018-12-27T02:33:35.872Z,90.39
2018-12-27T02:36:05.346Z,90.37
2018-12-27T02:38:35.168Z,90.35
2018-12-27T02:41:04.715Z,90.43
2018-12-27T02:43:34.278Z,90.36
2018-12-27T02:46:03.862Z,90.39
2018-12-27T02:48:33.414Z,90.57
2018-12-27T02:51:03.075Z,90.50
2018-12-27T02:53:33.173Z,90.73
2018-12-27T02:56:02.717Z,90.67
2018-12-27T02:58:32.458Z,90.54
2018-12-27T03:01:04.518Z,90.42
2018-12-27T03:03:34.131Z,90.55
2018-12-27T03:06:03.682Z,90.71
2018-12-27T03:08:36.389Z,90.78
2018-12-27T03:11:05.941Z,90.80
2018-12-27T03:13:35.504Z,90.72
2018-12-27T03:16:05.134Z,90.67
2018-12-27T03:18:34.803Z,90.51
2018-12-27T03:21:04.333Z,90.47
2018-12-27T03:23:34.012Z,90.43
2018-12-27T03:26:03.583Z,90.34
2018-12-27T03:28:33.129Z,90.27
2018-12-27T03:31:02.857Z,90.36
2018-12-27T03:33:32.677Z,90.35
2018-12-27T03:36:02.480Z,90.62
2018-12-27T03:38:32.450Z,90.71
2018-12-27T03:41:01.999Z,90.72
2018-12-27T03:43:36.557Z,90.97
2018-12-27T03:46:06.484Z,91.29
2018-12-27T03:48:36.134Z,91.58
2018-12-27T03:51:05.682Z,91.68
2018-12-27T03:53:35.775Z,91.69
2018-12-27T03:56:17.030Z,91.64
2018-12-27T03:58:50.511Z,91.58
2018-12-27T04:01:20.057Z,91.56
2018-12-27T04:03:49.594Z,91.57
2018-12-27T04:06:19.191Z,91.66
2018-12-27T04:08:48.971Z,91.80
2018-12-27T04:11:18.634Z,91.91
2018-12-27T04:13:48.452Z,91.95
2018-12-27T04:16:19.889Z,91.91
2018-12-27T04:18:49.379Z,91.82
2018-12-27T04:21:18.863Z,91.62
2018-12-27T04:23:48.829Z,91.64
2018-12-27T04:26:18.422Z,91.64
2018-12-27T04:29:06.732Z,91.71
2018-12-27T04:31:36.652Z,91.75
2018-12-27T04:34:09.658Z,91.66
2018-12-27T04:36:37.868Z,91.70
2018-12-27T04:39:19.396Z,91.74
2018-12-27T04:42:28.713Z,91.78
2018-12-27T04:44:58.286Z,91.81
2018-12-27T04:47:27.710Z,91.97
2018-12-27T04:49:57.321Z,91.92
2018-12-27T04:52:26.797Z,91.77
2018-12-27T04:54:56.308Z,91.83
2018-12-27T04:57:25.857Z,91.75
2018-12-27T05:00:14.123Z,91.77
2018-12-27T05:02:44.145Z,91.63
2018-12-27T05:05:13.618Z,91.54
2018-12-27T05:07:43.073Z,91.32
2018-12-27T05:12:49.061Z,90.95
2018-12-27T05:15:18.640Z,90.89
2018-12-27T05:17:48.101Z,91.05
2018-12-27T05:20:17.629Z,91.34
2018-12-27T05:22:47.306Z,91.41
2018-12-27T05:25:16.723Z,91.56
2018-12-27T05:27:46.161Z,91.71
2018-12-27T05:30:15.575Z,91.78
2018-12-27T05:32:45.171Z,91.86
2018-12-27T05:35:14.716Z,91.92
2018-12-27T05:37:44.361Z,92.08
2018-12-27T05:40:13.852Z,92.11
2018-12-27T05:42:43.839Z,92.24
2018-12-27T05:45:13.334Z,92.06
2018-12-27T05:47:42.899Z,92.20
2018-12-27T05:50:12.425Z,92.30
2018-12-27T05:52:46.159Z,92.33
2018-12-27T05:55:15.655Z,92.33
2018-12-27T05:57:48.010Z,92.37
2018-12-27T06:00:17.472Z,92.41
2018-12-27T06:02:47.048Z,92.45
2018-12-27T06:05:16.806Z,92.37
2018-12-27T06:07:46.252Z,92.43
2018-12-27T06:10:34.912Z,92.47
2018-12-27T06:13:04.496Z,92.39
2018-12-27T06:15:33.983Z,92.14
2018-12-27T06:18:03.450Z,91.97
2018-12-27T06:20:32.939Z,91.75
2018-12-27T06:23:02.365Z,91.51
2018-12-27T06:25:31.895Z,91.46
2018-12-27T06:28:01.489Z,91.27
2018-12-27T06:30:31.133Z,91.11
2018-12-27T06:33:01.074Z,91.13
2018-12-27T06:35:44.967Z,91.17
2018-12-27T06:38:13.660Z,91.21
2018-12-27T06:46:02.242Z,91.73
2018-12-27T06:48:31.647Z,91.90
2018-12-27T06:51:01.359Z,92.02
2018-12-27T06:53:32.523Z,92.16
2018-12-27T06:56:02.338Z,92.03
2018-12-27T06:58:37.747Z,91.91
2018-12-27T07:01:03.534Z,91.69
2018-12-27T07:03:44.160Z,91.37
2018-12-27T07:06:14.116Z,91.25
2018-12-27T07:08:43.570Z,90.88
2018-12-27T07:11:13.154Z,90.65
2018-12-27T07:14:01.986Z,90.41
2018-12-27T07:16:31.483Z,90.23
2018-12-27T07:19:10.112Z,89.59
2018-12-27T07:21:41.594Z,89.59
2018-12-27T07:24:11.210Z,89.61
2018-12-27T07:26:40.840Z,89.35
2018-12-27T07:29:10.283Z,89.39
2018-12-27T07:31:39.800Z,89.41
2018-12-27T07:34:10.132Z,89.55
2018-12-27T07:36:39.763Z,89.27
2018-12-27T07:39:28.447Z,89.26
2018-12-27T07:42:11.773Z,89.26
2018-12-27T07:44:41.427Z,89.56
2018-12-27T07:47:11.377Z,89.63
2018-12-27T07:49:42.999Z,89.86
2018-12-27T07:52:14.337Z,90.28
2018-12-27T07:54:43.908Z,90.25
2018-12-27T07:57:13.433Z,90.35
2018-12-27T07:59:43.124Z,90.66
2018-12-27T08:02:12.904Z,90.69
2018-12-27T08:04:42.375Z,90.51
2018-12-27T08:07:17.382Z,90.41
2018-12-27T08:09:46.891Z,90.10
2018-12-27T08:12:19.379Z,90.03
2018-12-27T08:14:49.030Z,89.96
2018-12-27T08:17:19.479Z,89.83
2018-12-27T08:19:51.471Z,89.69
2018-12-27T08:22:20.992Z,89.48
2018-12-27T08:27:39.087Z,89.65
2018-12-27T08:30:09.146Z,89.79
2018-12-27T08:32:40.143Z,90.00
2018-12-27T08:35:11.680Z,90.07
2018-12-27T08:37:40.876Z,90.13
2018-12-27T08:40:10.466Z,90.05
2018-12-27T08:42:40.179Z,90.23
2018-12-27T08:45:21.589Z,90.17
2018-12-27T08:47:51.049Z,90.46
2018-12-27T08:50:20.548Z,90.54
2018-12-27T08:53:25.887Z,90.71
2018-12-27T08:55:55.682Z,90.99
2018-12-27T08:58:25.677Z,91.28
2018-12-27T09:00:55.250Z,91.32
2018-12-27T09:03:24.735Z,91.32
2018-12-27T09:05:54.308Z,91.37
2018-12-27T09:08:26.302Z,91.33
2018-12-27T09:10:55.811Z,91.26
2018-12-27T09:13:25.758Z,91.29
2018-12-27T09:15:57.338Z,91.38
2018-12-27T09:18:26.839Z,91.17
2018-12-27T09:20:56.407Z,91.18
2018-12-27T09:23:25.899Z,91.02
2018-12-27T09:25:55.343Z,90.51
2018-12-27T09:28:24.874Z,90.21
2018-12-27T09:30:54.412Z,89.94
2018-12-27T09:33:23.915Z,89.55
2018-12-27T09:36:15.152Z,89.09
2018-12-27T09:38:59.486Z,88.80
2018-12-27T09:41:40.391Z,88.97
2018-12-27T09:44:10.247Z,89.15
2018-12-27T09:46:39.882Z,89.11
2018-12-27T09:49:10.059Z,89.06
2018-12-27T09:51:39.727Z,89.14
2018-12-27T09:54:28.382Z,88.91
2018-12-27T09:56:57.994Z,88.60
2018-12-27T09:59:27.425Z,88.21
2018-12-27T10:01:57.085Z,87.90
2018-12-27T10:04:26.613Z,87.81
2018-12-27T10:06:56.122Z,87.55
2018-12-27T10:09:25.638Z,87.27
2018-12-27T10:11:55.082Z,87.10
2018-12-27T10:14:24.532Z,86.98
2018-12-27T10:17:13.002Z,86.36
2018-12-27T10:19:44.232Z,86.28
2018-12-27T10:22:14.008Z,86.16
2018-12-27T10:24:43.526Z,86.33
2018-12-27T10:27:13.100Z,86.20
2018-12-27T10:30:03.011Z,86.34
2018-12-27T10:32:44.298Z,86.52
2018-12-27T10:35:13.870Z,86.40
2018-12-27T10:37:43.892Z,85.85
2018-12-27T10:40:13.907Z,85.86
2018-12-27T10:42:43.587Z,85.93
2018-12-27T10:45:13.447Z,85.81
2018-12-27T10:47:43.130Z,85.64
2018-12-27T10:50:31.637Z,85.39
2018-12-27T10:58:41.156Z,85.60
2018-12-27T11:01:22.930Z,85.49
2018-12-27T11:03:52.814Z,85.32
2018-12-27T11:06:22.334Z,85.46
2018-12-27T11:09:12.468Z,85.64
2018-12-27T11:11:42.282Z,85.54
2018-12-27T11:14:12.001Z,85.75
2018-12-27T11:16:41.576Z,85.51
2018-12-27T11:22:31.641Z,85.65
2018-12-27T11:25:01.253Z,86.12
2018-12-27T11:27:30.665Z,85.76
2018-12-27T11:32:35.864Z,85.92
2018-12-27T11:35:05.567Z,86.16
2018-12-27T11:37:35.141Z,86.00
2018-12-27T11:40:04.768Z,86.01
2018-12-27T11:42:37.631Z,85.92
2018-12-27T11:45:07.443Z,85.98
2018-12-27T11:47:36.865Z,85.59
2018-12-27T11:50:06.857Z,85.80
2018-12-27T11:52:36.299Z,85.85
2018-12-27T11:55:14.053Z,85.92
2018-12-27T11:57:43.518Z,85.84
2018-12-27T12:00:16.054Z,85.96
2018-12-27T12:03:05.903Z,85.84
2018-12-27T12:05:35.621Z,85.92
2018-12-27T12:08:05.046Z,86.21
2018-12-27T12:10:34.800Z,85.95
2018-12-27T12:13:04.235Z,86.28
2018-12-27T12:15:33.680Z,86.13
2018-12-27T12:18:03.107Z,86.31
2018-12-27T12:20:32.536Z,86.33
2018-12-27T12:23:02.373Z,85.97
2018-12-27T12:25:34.332Z,85.93
2018-12-27T12:28:05.848Z,85.87
2018-12-27T12:30:35.464Z,85.95
2018-12-27T12:33:05.196Z,85.91
2018-12-27T12:35:34.620Z,86.06
2018-12-27T12:38:04.516Z,86.18
2018-12-27T12:40:36.373Z,86.20
2018-12-27T12:43:08.364Z,86.55
2018-12-27T12:45:37.785Z,86.71
2018-12-27T12:48:07.486Z,86.39
2018-12-27T12:50:36.918Z,86.72
2018-12-27T12:53:06.743Z,86.96
2018-12-27T12:55:36.481Z,86.97
2018-12-27T13:00:58.579Z,87.05
2018-12-27T13:03:27.979Z,86.91
2018-12-27T13:06:34.375Z,86.80
2018-12-27T13:11:48.114Z,86.73
2018-12-27T13:14:17.766Z,86.75
2018-12-27T13:16:47.400Z,86.82
2018-12-27T13:19:19.291Z,86.77
2018-12-27T13:21:48.689Z,86.76
2018-12-27T13:24:18.117Z,86.84
2018-12-27T13:26:47.568Z,86.88
2018-12-27T13:29:17.178Z,87.10
2018-12-27T13:31:46.681Z,86.98
2018-12-27T13:34:16.469Z,87.10
2018-12-27T13:36:46.262Z,87.17
2018-12-27T13:39:15.897Z,87.41
2018-12-27T13:44:23.216Z,87.64
2018-12-27T13:47:04.772Z,87.44
2018-12-27T13:49:45.119Z,87.60
2018-12-27T13:52:15.476Z,87.51
2018-12-27T13:54:44.956Z,87.33
2018-12-27T13:57:14.386Z,87.27
2018-12-27T13:59:44.112Z,87.45
2018-12-27T14:02:13.624Z,87.38
2018-12-27T14:04:43.209Z,87.51
2018-12-27T14:07:15.486Z,87.73
2018-12-27T14:09:45.158Z,88.13
2018-12-27T14:12:14.577Z,88.16
2018-12-27T14:14:44.112Z,88.09
2018-12-27T14:17:13.625Z,88.58
2018-12-27T14:19:43.212Z,88.42
2018-12-27T14:22:12.783Z,88.31
2018-12-27T14:24:42.329Z,88.35
2018-12-27T14:27:11.876Z,87.92
2018-12-27T14:29:41.336Z,87.84
2018-12-27T14:32:13.831Z,87.58
2018-12-27T14:34:43.416Z,87.70
2018-12-27T14:37:13.041Z,87.70
2018-12-27T14:39:42.642Z,87.24
2018-12-27T14:42:12.327Z,87.28
2018-12-27T14:44:41.931Z,87.38
2018-12-27T14:47:11.388Z,87.59
2018-12-27T14:49:40.929Z,87.31
2018-12-27T14:52:10.553Z,87.19
2018-12-27T14:59:59.756Z,87.18
2018-12-27T15:02:41.051Z,87.19
2018-12-27T15:05:11.294Z,87.22
2018-12-27T15:07:40.911Z,87.19
2018-12-27T15:10:12.054Z,87.04
2018-12-27T15:12:41.622Z,86.92
2018-12-27T15:15:11.192Z,87.28
2018-12-27T15:17:40.877Z,87.13
2018-12-27T15:20:10.590Z,87.10
2018-12-27T15:22:54.168Z,87.30
2018-12-27T15:25:11.311Z,87.33
2018-12-27T15:27:52.511Z,87.24
2018-12-27T15:30:21.946Z,87.21
2018-12-27T15:32:51.358Z,87.55
2018-12-27T15:35:39.999Z,87.72
2018-12-27T15:38:10.073Z,87.55
2018-12-27T15:40:39.781Z,87.40
2018-12-27T15:43:09.287Z,87.07
2018-12-27T15:45:38.710Z,86.98
2018-12-27T15:48:08.177Z,87.07
2018-12-27T15:50:37.852Z,86.96
2018-12-27T15:53:07.294Z,86.66
2018-12-27T15:55:36.783Z,86.62
2018-12-27T15:58:06.530Z,86.45
2018-12-27T16:00:36.055Z,86.63
2018-12-27T16:03:05.547Z,86.58
2018-12-27T16:05:35.022Z,86.72
2018-12-27T16:08:04.480Z,86.83
2018-12-27T16:10:35.324Z,86.79
2018-12-27T16:13:05.164Z,86.64
2018-12-27T16:21:11.159Z,86.78
2018-12-27T16:23:40.802Z,86.78
2018-12-27T16:26:10.359Z,86.50
2018-12-27T16:28:39.847Z,86.19
2018-12-27T16:31:09.296Z,86.32
2018-12-27T16:33:38.808Z,86.41
2018-12-27T16:36:08.816Z,86.37
2018-12-27T16:38:38.278Z,86.43
2018-12-27T16:41:07.741Z,86.44
2018-12-27T16:43:37.223Z,86.50
2018-12-27T16:46:07.124Z,86.59
2018-12-27T16:48:36.681Z,86.59
2018-12-27T16:51:06.217Z,86.66
2018-12-27T16:53:35.942Z,86.92
2018-12-27T16:56:05.395Z,86.96
2018-12-27T16:58:34.806Z,86.98
2018-12-27T17:01:04.606Z,87.16
2018-12-27T17:03:34.064Z,87.26
2018-12-27T17:06:03.685Z,87.34
2018-12-27T17:08:33.311Z,87.49
2018-12-27T17:11:02.920Z,87.57
2018-12-27T17:13:32.342Z,87.73
2018-12-27T17:16:02.128Z,87.89
2018-12-27T17:18:42.934Z,87.92
2018-12-27T17:21:12.437Z,88.03
2018-12-27T17:23:42.218Z,88.04
2018-12-27T17:26:11.776Z,88.19
2018-12-27T17:28:41.472Z,88.29
2018-12-27T17:31:11.008Z,88.48
2018-12-27T17:33:40.432Z,88.66
2018-12-27T17:36:10.009Z,88.85
2018-12-27T17:38:39.459Z,89.05
2018-12-27T17:41:08.912Z,89.20
2018-12-27T17:43:38.554Z,89.34
2018-12-27T17:46:07.971Z,89.37
2018-12-27T17:48:37.432Z,89.67
2018-12-27T17:51:07.039Z,89.85
2018-12-27T17:53:36.496Z,89.95
2018-12-27T17:56:05.930Z,89.98
2018-12-27T17:58:35.374Z,90.04
2018-12-27T18:01:04.780Z,90.11
2018-12-27T18:03:34.261Z,90.03
2018-12-27T18:06:03.733Z,89.93
2018-12-27T18:08:33.266Z,90.13
2018-12-27T18:11:02.797Z,90.07
2018-12-27T18:13:32.481Z,89.81
2018-12-27T18:16:01.963Z,89.61
2018-12-27T18:18:31.363Z,89.57
2018-12-27T18:21:12.494Z,89.37
2018-12-27T18:23:42.360Z,89.22
2018-12-27T18:26:11.914Z,89.24
2018-12-27T18:28:41.532Z,89.38
2018-12-27T18:31:10.971Z,89.52
2018-12-27T18:33:40.462Z,89.56
2018-12-27T18:38:45.456Z,89.75
2018-12-27T18:41:15.498Z,89.97
2018-12-27T18:43:45.106Z,89.96
2018-12-27T18:46:14.510Z,90.19
2018-12-27T18:48:44.198Z,90.08
2018-12-27T18:51:13.703Z,90.06
2018-12-27T18:53:43.278Z,89.92
2018-12-27T18:56:13.273Z,89.92
2018-12-27T18:58:43.303Z,90.34
2018-12-27T19:01:12.711Z,90.03
2018-12-27T19:03:42.458Z,90.42
2018-12-27T19:06:12.114Z,90.40
2018-12-27T19:08:41.775Z,90.47
2018-12-27T19:11:49.347Z,90.56
2018-12-27T19:14:31.008Z,90.71
2018-12-27T19:17:01.417Z,90.94
2018-12-27T19:19:30.947Z,91.04
2018-12-27T19:22:21.569Z,91.18
2018-12-27T19:27:44.848Z,91.46
2018-12-27T19:33:04.516Z,91.40
2018-12-27T19:35:34.036Z,91.44
2018-12-27T19:38:03.850Z,91.30
2018-12-27T19:40:33.395Z,91.49
2018-12-27T19:43:02.934Z,91.49
2018-12-27T19:45:32.373Z,91.59
2018-12-27T19:48:02.002Z,91.59
2018-12-27T19:50:50.760Z,91.74
2018-12-27T19:55:56.019Z,91.60
2018-12-27T19:58:44.845Z,91.72
2018-12-27T20:01:15.469Z,91.72
2018-12-27T20:03:45.026Z,91.28
2018-12-27T20:06:14.609Z,90.89
2018-12-27T20:09:04.150Z,91.52
2018-12-27T20:11:33.849Z,91.52
2018-12-27T20:14:03.405Z,91.07
2018-12-27T20:16:32.970Z,90.91
2018-12-27T20:19:02.403Z,90.97
2018-12-27T20:21:31.866Z,91.13
2018-12-27T20:24:01.476Z,90.72
2018-12-27T20:26:31.007Z,90.72
2018-12-27T20:29:01.614Z,91.11
2018-12-27T20:31:31.227Z,91.09
2018-12-27T20:34:00.676Z,91.17
2018-12-27T20:36:30.261Z,91.21
2018-12-27T20:39:02.402Z,91.31
2018-12-27T20:41:50.725Z,91.37
2018-12-27T20:44:20.461Z,91.57
2018-12-27T20:46:50.125Z,91.62
2018-12-27T20:49:19.551Z,91.69
2018-12-27T20:51:49.257Z,91.71
2018-12-27T20:54:38.102Z,91.76
2018-12-27T20:57:07.597Z,91.76
2018-12-27T20:59:37.060Z,91.38
2018-12-27T21:02:06.851Z,91.47
2018-12-27T21:04:55.726Z,91.58
2018-12-27T21:07:25.168Z,91.58
2018-12-27T21:10:15.374Z,92.12
2018-12-27T21:12:46.508Z,92.12
2018-12-27T21:15:35.051Z,92.03
2018-12-27T21:18:04.852Z,92.07
2018-12-27T21:20:34.317Z,92.14
2018-12-27T21:23:03.854Z,92.08
2018-12-27T21:25:33.436Z,92.17
2018-12-27T21:28:03.028Z,92.28
2018-12-27T21:30:32.471Z,92.24
2018-12-27T21:33:04.309Z,92.23
2018-12-27T21:35:33.743Z,92.30
2018-12-27T21:38:06.117Z,92.37
2018-12-27T21:40:35.577Z,92.44
2018-12-27T21:43:05.206Z,92.47
2018-12-27T21:45:53.622Z,92.42
2018-12-27T21:48:42.310Z,92.55
2018-12-27T21:51:12.494Z,92.51
2018-12-27T21:56:30.619Z,92.57
2018-12-27T21:59:00.105Z,92.70
2018-12-27T22:01:29.535Z,92.88
2018-12-27T22:04:01.002Z,93.04
2018-12-27T22:06:30.466Z,93.23
2018-12-27T22:09:03.083Z,93.18
2018-12-27T22:11:32.546Z,93.36
2018-12-27T22:14:04.892Z,93.40
2018-12-27T22:16:34.366Z,93.36
2018-12-27T22:19:03.851Z,93.18
2018-12-27T22:21:33.383Z,93.08
2018-12-27T22:24:04.503Z,92.90
2018-12-27T22:26:37.637Z,92.90
2018-12-27T22:29:07.860Z,93.04
2018-12-27T22:31:37.334Z,93.06
2018-12-27T22:34:06.793Z,93.17
2018-12-27T22:36:36.293Z,93.18
2018-12-27T22:39:08.321Z,93.30
2018-12-27T22:41:37.726Z,93.19
2018-12-27T22:44:07.249Z,93.20
2018-12-27T22:46:38.831Z,93.29
2018-12-27T22:49:08.254Z,93.33
2018-12-27T22:51:37.654Z,93.31
2018-12-27T22:54:07.285Z,93.20
2018-12-27T22:56:58.418Z,92.93
2018-12-27T22:59:27.851Z,92.93
2018-12-27T23:02:01.751Z,92.66
2018-12-27T23:04:31.236Z,92.23
2018-12-27T23:07:18.552Z,92.01
2018-12-27T23:09:47.970Z,91.87
2018-12-27T23:15:06.071Z,91.73
2018-12-27T23:17:35.483Z,91.67
2018-12-27T23:20:05.065Z,91.59
2018-12-27T23:25:09.861Z,91.41
2018-12-27T23:27:39.536Z,91.31
2018-12-27T23:30:09.376Z,91.30
2018-12-27T23:32:38.815Z,91.01
2018-12-27T23:35:08.305Z,90.90
2018-12-27T23:38:17.686Z,91.53
2018-12-27T23:41:06.301Z,91.53
2018-12-27T23:43:46.819Z,91.18
2018-12-27T23:46:16.617Z,90.98
2018-12-27T23:49:04.926Z,91.15
2018-12-27T23:51:34.496Z,91.12
2018-12-27T23:54:15.796Z,91.19
2018-12-27T23:56:45.244Z,91.33
2018-12-27T23:59:15.064Z,91.45
